METAR Luftfahrt Wetterdaten     LSZH Zürich Airport
Temperatur
3°C Temperatur
3°C Taupunkt
100% Feuchtigkeit



Wind
5 KM/h
3 MPS
1 M/S
3 KTS



330°
NNW
Aktuelle Wetterlage

Area Nebel, Patches Of Nebel Area Nebel, Patches Of Nebel
Luftdruck 1026.92 (hPa) - 30.32 (inHg)
Sichtweite 1.2 (Meile) - 2 (Km)
Flughafen
Flughafen Code LSZH

Position : Zürich Airport
Entfernung: 60 (Km)

Metar:
LSZH 262350Z AUTO 33003KT 1900 0300N R14/0650N R16/0750U R28/P2000N R34/P2000N BCFG VCFG FEW001 03/03 Q1027 BECMG 0500 FG

Zeit: 27-10-2021 01:50 CEST